createdAt,value
2019-02-07T00:02:31.248Z,8.07
2019-02-07T00:05:12.807Z,7.80
2019-02-07T00:07:54.969Z,8.17
2019-02-07T00:10:36.532Z,7.90
2019-02-07T00:13:18.366Z,8.43
2019-02-07T00:16:00.000Z,6.50
2019-02-07T00:18:42.124Z,7.23
2019-02-07T00:21:23.891Z,7.57
2019-02-07T00:24:05.383Z,7.90
2019-02-07T00:26:47.102Z,7.73
2019-02-07T00:29:28.644Z,7.87
2019-02-07T00:32:10.795Z,8.57
2019-02-07T00:34:52.291Z,7.90
2019-02-07T00:37:33.871Z,8.03
2019-02-07T00:40:15.376Z,7.50
2019-02-07T00:42:57.791Z,8.23
2019-02-07T00:45:39.350Z,9.13
2019-02-07T00:48:20.799Z,9.07
2019-02-07T00:51:02.878Z,9.13
2019-02-07T00:53:44.265Z,8.70
2019-02-07T00:56:26.532Z,8.77
2019-02-07T00:59:07.964Z,9.70
2019-02-07T01:01:50.294Z,9.67
2019-02-07T01:04:32.479Z,9.40
2019-02-07T01:07:14.752Z,8.77
2019-02-07T01:09:56.289Z,8.23
2019-02-07T01:12:38.004Z,8.97
2019-02-07T01:15:19.436Z,8.20
2019-02-07T01:18:01.920Z,8.87
2019-02-07T01:20:43.332Z,8.37
2019-02-07T01:23:24.970Z,7.93
2019-02-07T01:26:06.369Z,8.20
2019-02-07T01:28:47.933Z,7.60
2019-02-07T01:31:30.123Z,7.73
2019-02-07T01:34:11.644Z,8.63
2019-02-07T01:36:54.161Z,7.93
2019-02-07T01:39:34.261Z,8.17
2019-02-07T01:42:23.321Z,7.73
2019-02-07T01:45:24.614Z,7.93
2019-02-07T01:48:04.829Z,7.33
2019-02-07T01:50:45.346Z,6.73
2019-02-07T01:53:34.485Z,6.73
2019-02-07T01:56:35.996Z,7.57
2019-02-07T01:59:17.659Z,9.10
2019-02-07T02:01:59.308Z,7.40
2019-02-07T02:04:40.628Z,6.90
2019-02-07T02:07:22.611Z,7.40
2019-02-07T02:10:04.876Z,6.90
2019-02-07T02:12:47.040Z,7.60
2019-02-07T02:15:28.655Z,7.30
2019-02-07T02:18:10.548Z,7.50
2019-02-07T02:20:52.115Z,7.53
2019-02-07T02:23:32.361Z,8.13
2019-02-07T02:26:12.608Z,7.87
2019-02-07T02:29:01.743Z,6.40
2019-02-07T02:31:43.137Z,7.53
2019-02-07T02:34:24.831Z,7.13
2019-02-07T02:37:07.140Z,6.60
2019-02-07T02:39:48.977Z,6.07
2019-02-07T02:42:31.325Z,7.10
2019-02-07T02:45:12.771Z,7.87
2019-02-07T02:47:55.067Z,7.33
2019-02-07T02:50:35.315Z,6.13
2019-02-07T02:53:24.443Z,6.53
2019-02-07T02:59:10.424Z,6.47
2019-02-07T03:02:18.654Z,5.97
2019-02-07T03:05:19.400Z,6.07
2019-02-07T03:08:20.630Z,5.83
2019-02-07T03:11:09.592Z,5.50
2019-02-07T03:14:10.724Z,6.63
2019-02-07T03:17:11.975Z,6.07
2019-02-07T03:20:15.793Z,5.37
2019-02-07T03:23:16.781Z,7.03
2019-02-07T03:26:18.029Z,6.40
2019-02-07T03:29:18.971Z,6.43
2019-02-07T03:32:22.716Z,5.83
2019-02-07T03:35:26.737Z,5.93
2019-02-07T03:38:28.178Z,5.80
2019-02-07T03:41:29.465Z,5.27
2019-02-07T03:44:30.359Z,6.13
2019-02-07T03:47:25.801Z,6.50
2019-02-07T03:50:45.927Z,5.27
2019-02-07T03:56:45.764Z,5.90
2019-02-07T03:59:49.419Z,6.00
2019-02-07T04:02:40.706Z,6.03
2019-02-07T04:06:01.842Z,5.77
2019-02-07T04:08:50.848Z,5.60
2019-02-07T04:11:58.981Z,4.67
2019-02-07T04:15:05.804Z,4.97
2019-02-07T04:18:09.869Z,4.90
2019-02-07T04:21:11.170Z,4.97
2019-02-07T04:24:12.033Z,4.90
2019-02-07T04:27:13.309Z,4.90
2019-02-07T04:30:14.581Z,5.37
2019-02-07T04:33:16.666Z,4.67
2019-02-07T04:36:17.637Z,4.50
2019-02-07T04:39:18.322Z,4.30
2019-02-07T04:42:18.826Z,4.53
2019-02-07T04:45:20.023Z,4.50
2019-02-07T04:48:19.472Z,4.47
2019-02-07T04:51:29.931Z,4.10
2019-02-07T04:54:33.488Z,3.83
2019-02-07T04:57:53.792Z,3.70
2019-02-07T05:00:44.018Z,4.20
2019-02-07T05:03:44.874Z,3.57
2019-02-07T05:06:40.897Z,3.70
2019-02-07T05:09:26.847Z,3.47
2019-02-07T05:12:34.991Z,3.47
2019-02-07T05:15:42.066Z,3.87
2019-02-07T05:18:36.818Z,3.43
2019-02-07T05:21:37.585Z,2.97
2019-02-07T05:24:31.484Z,3.07
2019-02-07T05:30:34.974Z,2.87
2019-02-07T05:33:35.708Z,3.07
2019-02-07T05:36:37.016Z,2.70
2019-02-07T05:39:44.256Z,2.53
2019-02-07T05:42:38.479Z,2.70
2019-02-07T05:45:39.106Z,2.77
2019-02-07T05:48:28.198Z,2.50
2019-02-07T05:51:36.503Z,2.20
2019-02-07T05:54:37.007Z,2.20
2019-02-07T05:57:41.159Z,1.93
2019-02-07T06:00:42.412Z,2.20
2019-02-07T06:03:31.831Z,2.07
2019-02-07T06:06:32.284Z,2.00
2019-02-07T06:09:33.317Z,2.13
2019-02-07T06:12:34.066Z,1.73
2019-02-07T06:15:34.945Z,2.03
2019-02-07T06:18:36.064Z,2.17
2019-02-07T06:21:36.908Z,2.00
2019-02-07T06:24:13.594Z,1.80
2019-02-07T06:27:21.849Z,1.83
2019-02-07T06:30:30.852Z,2.20
2019-02-07T06:33:53.359Z,1.90
2019-02-07T06:36:54.053Z,1.80
2019-02-07T06:39:50.543Z,2.03
2019-02-07T06:46:27.580Z,1.50
2019-02-07T06:49:28.042Z,1.87
2019-02-07T06:52:23.320Z,1.50
2019-02-07T06:55:45.656Z,1.67
2019-02-07T06:59:01.634Z,1.67
2019-02-07T07:01:49.428Z,1.70
2019-02-07T07:04:41.104Z,2.00
2019-02-07T07:07:42.583Z,1.40
2019-02-07T07:10:32.830Z,1.13
2019-02-07T07:13:21.887Z,1.30
2019-02-07T07:16:18.117Z,1.50
2019-02-07T07:19:05.761Z,1.40
2019-02-07T07:22:04.213Z,1.30
2019-02-07T07:24:52.404Z,1.03
2019-02-07T07:27:40.492Z,0.87
2019-02-07T07:30:30.226Z,1.10
2019-02-07T07:33:22.131Z,1.10
2019-02-07T07:36:10.213Z,1.27
2019-02-07T07:38:54.663Z,1.10
2019-02-07T07:41:47.197Z,0.90
2019-02-07T07:44:34.755Z,1.00
2019-02-07T07:47:23.866Z,1.30
2019-02-07T07:50:07.108Z,0.90
2019-02-07T07:52:59.272Z,0.80
2019-02-07T07:55:44.842Z,1.00
2019-02-07T07:58:40.084Z,0.70
2019-02-07T08:01:28.101Z,1.00
2019-02-07T08:04:08.676Z,0.90
2019-02-07T08:07:00.892Z,0.97
2019-02-07T08:09:42.672Z,1.10
2019-02-07T08:12:30.387Z,1.00
2019-02-07T08:15:18.129Z,1.10
2019-02-07T08:18:22.683Z,1.00
2019-02-07T08:21:10.619Z,1.70
2019-02-07T08:23:58.127Z,2.13
2019-02-07T08:26:47.276Z,2.37
2019-02-07T08:29:26.717Z,1.97
2019-02-07T08:32:24.953Z,2.47
2019-02-07T08:35:16.840Z,2.10
2019-02-07T08:38:05.766Z,2.33
2019-02-07T08:40:46.931Z,2.30
2019-02-07T08:43:35.960Z,2.50
2019-02-07T08:46:26.727Z,2.27
2019-02-07T08:49:19.212Z,2.67
2019-02-07T08:52:11.635Z,2.73
2019-02-07T08:55:15.973Z,2.47
2019-02-07T08:58:20.271Z,1.90
2019-02-07T09:01:15.097Z,2.00
2019-02-07T09:04:04.128Z,1.90
2019-02-07T09:06:51.945Z,2.53
2019-02-07T09:09:41.638Z,2.00
2019-02-07T09:12:29.880Z,1.93
2019-02-07T09:15:13.507Z,2.67
2019-02-07T09:18:11.410Z,2.50
2019-02-07T09:20:59.801Z,2.67
2019-02-07T09:23:48.883Z,2.17
2019-02-07T09:26:36.621Z,2.70
2019-02-07T09:29:24.243Z,2.27
2019-02-07T09:32:14.652Z,3.03
2019-02-07T09:35:19.002Z,2.77
2019-02-07T09:38:06.356Z,2.47
2019-02-07T09:41:04.240Z,2.80
2019-02-07T09:43:59.282Z,3.23
2019-02-07T09:46:49.012Z,2.37
2019-02-07T09:49:53.579Z,2.40
2019-02-07T09:52:41.704Z,2.90
2019-02-07T09:55:49.888Z,2.03
2019-02-07T09:58:38.285Z,1.80
2019-02-07T10:01:28.532Z,2.83
2019-02-07T10:04:14.517Z,2.30
2019-02-07T10:07:07.270Z,2.40
2019-02-07T10:10:04.844Z,2.20
2019-02-07T10:13:03.459Z,2.63
2019-02-07T10:16:01.375Z,2.50
2019-02-07T10:19:00.951Z,2.53
2019-02-07T10:21:41.063Z,2.43
2019-02-07T10:24:48.870Z,2.20
2019-02-07T10:27:38.254Z,2.13
2019-02-07T10:30:45.629Z,2.70
2019-02-07T10:33:36.029Z,2.40
2019-02-07T10:36:26.397Z,2.70
2019-02-07T10:39:14.071Z,2.50
2019-02-07T10:42:01.872Z,2.37
2019-02-07T10:44:49.599Z,2.50
2019-02-07T10:47:41.456Z,2.37
2019-02-07T10:50:29.640Z,2.47
2019-02-07T10:53:17.256Z,2.60
2019-02-07T10:56:05.335Z,2.10
2019-02-07T10:58:59.942Z,2.83
2019-02-07T11:01:54.185Z,2.20
2019-02-07T11:04:46.039Z,2.30
2019-02-07T11:07:38.237Z,2.80
2019-02-07T11:10:36.149Z,2.47
2019-02-07T11:13:20.859Z,1.80
2019-02-07T11:16:09.981Z,2.80
2019-02-07T11:18:58.028Z,2.37
2019-02-07T11:21:45.837Z,1.60
2019-02-07T11:24:48.364Z,2.30
2019-02-07T11:27:37.476Z,2.53
2019-02-07T11:30:33.696Z,2.00
2019-02-07T11:33:10.404Z,2.00
2019-02-07T11:35:54.944Z,1.80
2019-02-07T11:38:50.140Z,1.47
2019-02-07T11:41:30.744Z,1.87
2019-02-07T11:44:11.900Z,2.50
2019-02-07T11:47:05.332Z,1.93
2019-02-07T11:49:40.382Z,2.43
2019-02-07T11:52:29.493Z,2.03
2019-02-07T11:55:21.534Z,2.43
2019-02-07T11:58:09.038Z,2.63
2019-02-07T12:00:53.596Z,2.43
2019-02-07T12:03:41.647Z,1.93
2019-02-07T12:06:27.500Z,2.20
2019-02-07T12:09:25.683Z,2.70
2019-02-07T12:12:07.316Z,2.23
2019-02-07T12:15:05.592Z,1.80
2019-02-07T12:17:53.195Z,2.20
2019-02-07T12:20:36.699Z,1.90
2019-02-07T12:23:24.340Z,1.93
2019-02-07T12:26:16.208Z,2.20
2019-02-07T12:29:04.268Z,1.87
2019-02-07T12:31:52.036Z,2.00
2019-02-07T12:34:34.916Z,2.07
2019-02-07T12:37:22.620Z,1.87
2019-02-07T12:40:11.864Z,2.30
2019-02-07T12:43:03.877Z,1.80
2019-02-07T12:45:52.888Z,1.50
2019-02-07T12:48:40.651Z,1.83
2019-02-07T12:51:26.186Z,2.00
2019-02-07T12:54:13.191Z,1.90
2019-02-07T12:57:14.223Z,2.30
2019-02-07T13:00:06.159Z,2.10
2019-02-07T13:02:55.307Z,2.07
2019-02-07T13:05:39.754Z,1.87
2019-02-07T13:08:38.006Z,1.80
2019-02-07T13:11:26.180Z,2.00
2019-02-07T13:14:13.433Z,1.77
2019-02-07T13:16:57.341Z,1.77
2019-02-07T13:19:46.536Z,2.20
2019-02-07T13:22:53.679Z,2.17
2019-02-07T13:25:45.342Z,2.30
2019-02-07T13:28:24.911Z,1.90
2019-02-07T13:31:19.913Z,1.90
2019-02-07T13:34:23.906Z,1.80
2019-02-07T13:37:16.179Z,1.40
2019-02-07T13:40:11.847Z,2.10
2019-02-07T13:43:04.033Z,1.80
2019-02-07T13:46:02.180Z,1.57
2019-02-07T13:48:50.865Z,1.80
2019-02-07T13:51:39.125Z,1.83
2019-02-07T13:54:28.220Z,1.67
2019-02-07T13:57:22.423Z,1.90
2019-02-07T14:00:14.343Z,1.63
2019-02-07T14:02:56.424Z,2.00
2019-02-07T14:05:49.379Z,1.63
2019-02-07T14:08:38.697Z,1.80
2019-02-07T14:11:24.925Z,1.63
2019-02-07T14:14:12.447Z,1.83
2019-02-07T14:17:13.701Z,1.60
2019-02-07T14:20:15.819Z,1.40
2019-02-07T14:23:03.529Z,1.70
2019-02-07T14:25:51.483Z,1.90
2019-02-07T14:28:40.604Z,1.60
2019-02-07T14:31:28.189Z,1.73
2019-02-07T14:34:18.171Z,1.90
2019-02-07T14:37:16.208Z,2.10
2019-02-07T14:40:08.368Z,2.27
2019-02-07T14:42:49.017Z,1.60
2019-02-07T14:45:37.231Z,1.30
2019-02-07T14:48:09.351Z,2.17
2019-02-07T14:50:39.592Z,2.77
2019-02-07T14:53:09.616Z,1.87
2019-02-07T14:55:40.662Z,1.83
2019-02-07T14:58:10.676Z,1.87
2019-02-07T15:00:40.868Z,1.60
2019-02-07T15:03:10.977Z,1.23
2019-02-07T15:05:41.184Z,1.73
2019-02-07T15:08:11.217Z,1.70
2019-02-07T15:10:41.291Z,1.60
2019-02-07T15:13:11.640Z,1.47
2019-02-07T15:15:41.732Z,1.63
2019-02-07T15:18:11.889Z,1.50
2019-02-07T15:20:42.263Z,2.63
2019-02-07T15:23:12.448Z,2.10
2019-02-07T15:25:42.879Z,2.20
2019-02-07T15:28:13.143Z,1.90
2019-02-07T15:30:43.376Z,1.70
2019-02-07T15:33:13.400Z,1.57
2019-02-07T15:35:46.335Z,2.27
2019-02-07T15:38:16.362Z,1.80
2019-02-07T15:40:47.497Z,2.30
2019-02-07T15:43:17.612Z,1.90
2019-02-07T15:45:47.829Z,2.30
2019-02-07T15:48:18.143Z,2.70
2019-02-07T15:50:48.472Z,2.50
2019-02-07T15:53:18.689Z,2.17
2019-02-07T15:55:48.802Z,2.20
2019-02-07T15:58:21.727Z,1.90
2019-02-07T16:00:55.234Z,1.43
2019-02-07T16:03:32.939Z,2.23
2019-02-07T16:06:03.067Z,2.07
2019-02-07T16:08:33.058Z,1.80
2019-02-07T16:11:03.108Z,2.00
2019-02-07T16:13:33.336Z,3.23
2019-02-07T16:16:03.499Z,1.53
2019-02-07T16:18:33.563Z,1.77
2019-02-07T16:21:03.941Z,1.70
2019-02-07T16:23:33.971Z,1.63
2019-02-07T16:26:04.313Z,1.80
2019-02-07T16:28:34.377Z,1.60
2019-02-07T16:31:05.604Z,1.60
2019-02-07T16:33:36.228Z,1.87
2019-02-07T16:36:06.458Z,1.90
2019-02-07T16:38:36.396Z,1.57
2019-02-07T16:41:06.921Z,1.60
2019-02-07T16:43:37.251Z,1.97
2019-02-07T16:46:07.635Z,1.57
2019-02-07T16:48:37.651Z,1.40
2019-02-07T16:51:07.903Z,1.83
2019-02-07T16:53:38.019Z,1.87
2019-02-07T16:56:08.323Z,1.60
2019-02-07T16:58:38.285Z,1.77
2019-02-07T17:01:09.695Z,1.67
2019-02-07T17:03:40.715Z,2.00
2019-02-07T17:06:11.044Z,2.03
2019-02-07T17:08:41.428Z,1.63
2019-02-07T17:11:11.576Z,2.00
2019-02-07T17:13:41.592Z,1.87
2019-02-07T17:16:11.868Z,2.03
2019-02-07T17:18:41.908Z,1.70
2019-02-07T17:21:12.780Z,1.80
2019-02-07T17:23:43.040Z,1.77
2019-02-07T17:26:13.190Z,1.93
2019-02-07T17:28:43.287Z,1.40
2019-02-07T17:31:13.313Z,1.50
2019-02-07T17:33:43.461Z,1.60
2019-02-07T17:36:13.934Z,1.50
2019-02-07T17:38:43.879Z,1.70
2019-02-07T17:41:14.012Z,1.10
2019-02-07T17:43:44.627Z,1.30
2019-02-07T17:46:15.180Z,1.60
2019-02-07T17:48:45.635Z,1.07
2019-02-07T17:51:22.928Z,1.30
2019-02-07T17:53:47.817Z,1.00
2019-02-07T17:56:17.923Z,1.17
2019-02-07T17:58:47.970Z,1.10
2019-02-07T18:01:18.163Z,1.23
2019-02-07T18:03:48.190Z,1.30
2019-02-07T18:06:18.322Z,1.30
2019-02-07T18:08:49.335Z,1.20
2019-02-07T18:11:19.463Z,1.63
2019-02-07T18:13:49.427Z,1.40
2019-02-07T18:16:19.559Z,1.60
2019-02-07T18:18:49.651Z,1.40
2019-02-07T18:21:20.240Z,1.67
2019-02-07T18:23:50.193Z,1.50
2019-02-07T18:26:20.319Z,1.57
2019-02-07T18:28:50.749Z,1.43
2019-02-07T18:31:21.444Z,2.03
2019-02-07T18:33:52.271Z,1.40
2019-02-07T18:36:22.840Z,1.60
2019-02-07T18:38:53.485Z,1.50
2019-02-07T18:41:24.073Z,1.63
2019-02-07T18:43:54.616Z,1.67
2019-02-07T18:46:25.115Z,1.87
2019-02-07T18:48:55.174Z,2.10
2019-02-07T18:51:25.236Z,1.30
2019-02-07T18:53:55.639Z,1.40
2019-02-07T18:56:26.234Z,1.40
2019-02-07T18:58:56.642Z,1.93
2019-02-07T19:01:27.382Z,1.80
2019-02-07T19:03:57.836Z,2.00
2019-02-07T19:06:28.477Z,1.60
2019-02-07T19:08:58.497Z,2.07
2019-02-07T19:11:28.619Z,2.00
2019-02-07T19:13:58.925Z,2.00
2019-02-07T19:16:29.662Z,1.87
2019-02-07T19:18:59.892Z,1.80
2019-02-07T19:21:30.078Z,1.73
2019-02-07T19:24:00.110Z,1.80
2019-02-07T19:26:30.164Z,1.50
2019-02-07T19:29:00.185Z,1.67
2019-02-07T19:31:30.338Z,1.70
2019-02-07T19:34:00.363Z,2.20
2019-02-07T19:36:30.436Z,1.87
2019-02-07T19:39:00.763Z,1.70
2019-02-07T19:41:31.194Z,1.73
2019-02-07T19:44:01.227Z,2.03
2019-02-07T19:46:31.387Z,1.80
2019-02-07T19:49:01.337Z,1.80
2019-02-07T19:51:31.480Z,1.20
2019-02-07T19:54:01.520Z,1.27
2019-02-07T19:56:31.851Z,1.10
2019-02-07T19:59:01.872Z,1.57
2019-02-07T20:01:32.091Z,1.40
2019-02-07T20:04:02.041Z,1.50
2019-02-07T20:06:32.018Z,1.30
2019-02-07T20:09:02.037Z,1.60
2019-02-07T20:11:32.069Z,1.20
2019-02-07T20:14:03.381Z,1.23
2019-02-07T20:16:33.543Z,1.13
2019-02-07T20:19:05.232Z,1.07
2019-02-07T20:21:36.133Z,1.37
2019-02-07T20:24:06.291Z,1.00
2019-02-07T20:26:36.407Z,1.13
2019-02-07T20:29:07.036Z,1.40
2019-02-07T20:31:36.989Z,1.47
2019-02-07T20:34:07.117Z,1.23
2019-02-07T20:36:37.232Z,1.20
2019-02-07T20:39:09.228Z,1.10
2019-02-07T20:41:39.257Z,1.20
2019-02-07T20:44:09.397Z,1.30
2019-02-07T20:46:39.442Z,1.43
2019-02-07T20:49:09.772Z,1.10
2019-02-07T20:51:40.019Z,1.30
2019-02-07T20:54:10.157Z,1.33
2019-02-07T20:56:40.179Z,1.63
2019-02-07T20:59:10.333Z,1.17
2019-02-07T21:01:40.516Z,1.77
2019-02-07T21:04:10.591Z,1.30
2019-02-07T21:06:40.489Z,1.10
2019-02-07T21:09:11.349Z,1.13
2019-02-07T21:11:41.293Z,1.53
2019-02-07T21:14:11.545Z,1.40
2019-02-07T21:16:41.567Z,1.30
2019-02-07T21:19:11.719Z,1.27
2019-02-07T21:21:41.656Z,1.37
2019-02-07T21:24:11.845Z,1.30
2019-02-07T21:26:41.891Z,1.40
2019-02-07T21:29:12.097Z,1.20
2019-02-07T21:31:42.244Z,1.10
2019-02-07T21:34:12.400Z,0.90
2019-02-07T21:36:42.365Z,1.03
2019-02-07T21:39:12.408Z,1.43
2019-02-07T21:41:42.421Z,0.97
2019-02-07T21:44:12.443Z,1.47
2019-02-07T21:46:43.109Z,1.53
2019-02-07T21:49:13.266Z,1.30
2019-02-07T21:51:43.221Z,1.20
2019-02-07T21:54:13.350Z,1.50
2019-02-07T21:56:43.288Z,1.00
2019-02-07T21:59:13.343Z,1.60
2019-02-07T22:01:43.632Z,1.20
2019-02-07T22:04:13.688Z,1.47
2019-02-07T22:06:43.714Z,1.27
2019-02-07T22:09:14.123Z,1.33
2019-02-07T22:11:44.143Z,1.40
2019-02-07T22:14:14.239Z,1.10
2019-02-07T22:16:44.263Z,1.10
2019-02-07T22:19:14.299Z,1.10
2019-02-07T22:21:45.303Z,1.33
2019-02-07T22:24:15.348Z,1.50
2019-02-07T22:26:45.283Z,1.90
2019-02-07T22:29:15.352Z,1.60
2019-02-07T22:31:45.360Z,1.60
2019-02-07T22:34:15.404Z,1.57
2019-02-07T22:36:45.403Z,1.80
2019-02-07T22:39:15.451Z,1.50
2019-02-07T22:41:45.387Z,1.90
2019-02-07T22:44:15.720Z,1.30
2019-02-07T22:46:45.736Z,1.83
2019-02-07T22:49:15.660Z,1.60
2019-02-07T22:51:45.595Z,1.90
2019-02-07T22:54:15.676Z,2.00
2019-02-07T22:56:46.905Z,1.60
2019-02-07T22:59:17.449Z,1.43
2019-02-07T23:01:53.196Z,1.30
2019-02-07T23:04:24.491Z,1.50
2019-02-07T23:06:54.582Z,1.30
2019-02-07T23:09:24.729Z,1.30
2019-02-07T23:11:55.042Z,1.23
2019-02-07T23:14:25.064Z,1.30
2019-02-07T23:16:55.096Z,1.77
2019-02-07T23:19:25.141Z,1.33
2019-02-07T23:21:55.147Z,1.47
2019-02-07T23:24:25.110Z,1.77
2019-02-07T23:26:55.149Z,1.33
2019-02-07T23:29:25.291Z,1.37
2019-02-07T23:32:14.451Z,1.50
2019-02-07T23:34:44.349Z,1.30
2019-02-07T23:37:14.658Z,1.03
2019-02-07T23:39:44.712Z,1.13
2019-02-07T23:42:33.881Z,1.20
2019-02-07T23:45:15.280Z,1.07
2019-02-07T23:47:45.315Z,1.20
2019-02-07T23:50:34.497Z,1.60
2019-02-07T23:56:31.684Z,1.47
2019-02-07T23:59:01.725Z,1.10
